TAF and METAR

METAR for Inca Manco Capac Airport

SPJL 221200Z 33001KT 9999 FEW020 07/03 Q1034 RMK PP000
Report created 22. okt 14:00
wind 1 knots from NNW (330°) visibility > 10km some clouds (~25% cover) at 2000 feet Temperature 7° with dewpoint at 3° (Humidity 75.67%) Pressure 1034 hPa

TAF for Inca Manco Capac Airport

TAF SPJL 221120Z 2212/2312 10003KT 9999 FEW020 TX18/2219Z TN03/2310Z FM221800 12007KT 9999 SCT020 SCT100 FM230000 18004KT 9999 SCT015
Report created 22. okt 13:20

between 22. okt 14:00 - 23. okt 14:00

wind 3 knots from E (100°) visibility > 10km some clouds (~25% cover) at 2000 feet Max temperature 18° expected today at around 21 o'clock Min temperature 03° expected tomorrow at around 12 o'clock

From 22. okt 20:00

wind 7 knots from ESE (120°) visibility > 10km scattered clouds (~50% cover) at 2000 feet scattered clouds (~50% cover) at 10000 feet

From 23. okt 02:00

wind 4 knots from S (180°) visibility > 10km scattered clouds (~50% cover) at 1500 feet
Inca Manco Capac Airport in Peru at 3827m

Latest 5 airports